sensor_id;sensor_type;location;lat;lon;timestamp;P1;durP1;ratioP1;P2;durP2;ratioP2
60336;SDS011;46978;50.288;28.624;2023-04-08T00:00:18;28.35;;;17.69;;
60336;SDS011;46978;50.288;28.624;2023-04-08T00:01:20;31.95;;;18.31;;
60336;SDS011;46978;50.288;28.624;2023-04-08T00:02:22;31.18;;;20.53;;
60336;SDS011;46978;50.288;28.624;2023-04-08T00:03:23;28.35;;;17.11;;
60336;SDS011;46978;50.288;28.624;2023-04-08T00:04:25;23.76;;;15.06;;
60336;SDS011;46978;50.288;28.624;2023-04-08T00:05:27;23.74;;;15.13;;
60336;SDS011;46978;50.288;28.624;2023-04-08T00:06:29;28.33;;;17.46;;
60336;SDS011;46978;50.288;28.624;2023-04-08T00:07:31;36.99;;;21.30;;
60336;SDS011;46978;50.288;28.624;2023-04-08T00:08:32;37.62;;;21.96;;
60336;SDS011;46978;50.288;28.624;2023-04-08T00:09:34;36.11;;;22.54;;
60336;SDS011;46978;50.288;28.624;2023-04-08T00:10:36;35.92;;;22.74;;
60336;SDS011;46978;50.288;28.624;2023-04-08T00:11:40;40.14;;;24.18;;
60336;SDS011;46978;50.288;28.624;2023-04-08T00:12:42;40.27;;;23.65;;
60336;SDS011;46978;50.288;28.624;2023-04-08T00:13:44;36.69;;;23.68;;
60336;SDS011;46978;50.288;28.624;2023-04-08T00:14:46;38.85;;;24.01;;
60336;SDS011;46978;50.288;28.624;2023-04-08T00:15:48;40.23;;;24.35;;
60336;SDS011;46978;50.288;28.624;2023-04-08T00:16:50;38.58;;;24.73;;
60336;SDS011;46978;50.288;28.624;2023-04-08T00:17:51;39.97;;;24.78;;
60336;SDS011;46978;50.288;28.624;2023-04-08T00:18:53;38.45;;;24.44;;
60336;SDS011;46978;50.288;28.624;2023-04-08T00:19:55;37.54;;;23.67;;
60336;SDS011;46978;50.288;28.624;2023-04-08T00:20:57;39.56;;;23.53;;
60336;SDS011;46978;50.288;28.624;2023-04-08T00:21:59;38.56;;;22.26;;
60336;SDS011;46978;50.288;28.624;2023-04-08T00:23:00;38.68;;;23.01;;
60336;SDS011;46978;50.288;28.624;2023-04-08T00:24:02;42.64;;;24.91;;
60336;SDS011;46978;50.288;28.624;2023-04-08T00:25:06;40.81;;;23.83;;
60336;SDS011;46978;50.288;28.624;2023-04-08T00:26:08;39.44;;;24.64;;
60336;SDS011;46978;50.288;28.624;2023-04-08T00:27:10;38.62;;;23.06;;
60336;SDS011;46978;50.288;28.624;2023-04-08T00:28:14;40.35;;;24.43;;
60336;SDS011;46978;50.288;28.624;2023-04-08T00:29:15;29.50;;;17.93;;
60336;SDS011;46978;50.288;28.624;2023-04-08T00:30:17;38.74;;;23.91;;
60336;SDS011;46978;50.288;28.624;2023-04-08T00:31:19;30.73;;;18.89;;
60336;SDS011;46978;50.288;28.624;2023-04-08T00:32:21;30.44;;;18.73;;
60336;SDS011;46978;50.288;28.624;2023-04-08T00:33:22;25.26;;;16.07;;
60336;SDS011;46978;50.288;28.624;2023-04-08T00:34:25;27.43;;;17.24;;
60336;SDS011;46978;50.288;28.624;2023-04-08T00:35:27;27.57;;;16.69;;
60336;SDS011;46978;50.288;28.624;2023-04-08T00:36:30;27.32;;;17.04;;
60336;SDS011;46978;50.288;28.624;2023-04-08T00:37:32;25.25;;;16.73;;
60336;SDS011;46978;50.288;28.624;2023-04-08T00:38:34;26.34;;;16.56;;
60336;SDS011;46978;50.288;28.624;2023-04-08T00:39:36;32.34;;;18.67;;
60336;SDS011;46978;50.288;28.624;2023-04-08T00:42:00;29.28;;;18.84;;
60336;SDS011;46978;50.288;28.624;2023-04-08T00:43:02;27.59;;;16.91;;
60336;SDS011;46978;50.288;28.624;2023-04-08T00:44:04;22.18;;;14.23;;
60336;SDS011;46978;50.288;28.624;2023-04-08T00:45:07;24.44;;;14.73;;
60336;SDS011;46978;50.288;28.624;2023-04-08T00:46:10;29.23;;;17.48;;
60336;SDS011;46978;50.288;28.624;2023-04-08T00:47:11;25.54;;;15.86;;
60336;SDS011;46978;50.288;28.624;2023-04-08T00:48:14;24.35;;;14.63;;
60336;SDS011;46978;50.288;28.624;2023-04-08T00:49:16;22.40;;;13.47;;
60336;SDS011;46978;50.288;28.624;2023-04-08T00:50:18;24.31;;;14.87;;
60336;SDS011;46978;50.288;28.624;2023-04-08T00:51:20;23.87;;;14.67;;
60336;SDS011;46978;50.288;28.624;2023-04-08T00:52:22;23.09;;;14.47;;
60336;SDS011;46978;50.288;28.624;2023-04-08T00:53:23;24.52;;;14.36;;
60336;SDS011;46978;50.288;28.624;2023-04-08T00:54:27;23.44;;;14.56;;
60336;SDS011;46978;50.288;28.624;2023-04-08T00:55:29;23.23;;;14.25;;
60336;SDS011;46978;50.288;28.624;2023-04-08T00:56:31;23.41;;;14.54;;
60336;SDS011;46978;50.288;28.624;2023-04-08T00:57:34;23.67;;;14.61;;
60336;SDS011;46978;50.288;28.624;2023-04-08T00:58:36;23.94;;;15.51;;
60336;SDS011;46978;50.288;28.624;2023-04-08T00:59:40;23.66;;;14.59;;
60336;SDS011;46978;50.288;28.624;2023-04-08T01:00:45;24.98;;;15.08;;
60336;SDS011;46978;50.288;28.624;2023-04-08T01:05:35;23.84;;;15.57;;
60336;SDS011;46978;50.288;28.624;2023-04-08T01:06:50;22.35;;;15.66;;
60336;SDS011;46978;50.288;28.624;2023-04-08T01:07:53;23.21;;;14.84;;
60336;SDS011;46978;50.288;28.624;2023-04-08T01:08:55;24.12;;;15.55;;
60336;SDS011;46978;50.288;28.624;2023-04-08T01:10:01;22.11;;;14.21;;
60336;SDS011;46978;50.288;28.624;2023-04-08T01:11:09;24.43;;;15.63;;
60336;SDS011;46978;50.288;28.624;2023-04-08T01:12:17;28.23;;;17.25;;
60336;SDS011;46978;50.288;28.624;2023-04-08T01:13:19;29.82;;;18.18;;
60336;SDS011;46978;50.288;28.624;2023-04-08T01:14:24;27.22;;;16.61;;
60336;SDS011;46978;50.288;28.624;2023-04-08T01:15:29;23.04;;;15.22;;
60336;SDS011;46978;50.288;28.624;2023-04-08T01:16:32;29.63;;;18.87;;
60336;SDS011;46978;50.288;28.624;2023-04-08T01:17:34;25.10;;;16.17;;
60336;SDS011;46978;50.288;28.624;2023-04-08T01:18:38;30.48;;;18.32;;
60336;SDS011;46978;50.288;28.624;2023-04-08T01:19:43;30.73;;;18.00;;
60336;SDS011;46978;50.288;28.624;2023-04-08T01:20:47;30.23;;;19.12;;
60336;SDS011;46978;50.288;28.624;2023-04-08T01:21:52;33.49;;;20.34;;
60336;SDS011;46978;50.288;28.624;2023-04-08T01:24:20;31.88;;;19.06;;
60336;SDS011;46978;50.288;28.624;2023-04-08T01:25:29;32.26;;;18.82;;
60336;SDS011;46978;50.288;28.624;2023-04-08T01:26:34;29.64;;;17.93;;
60336;SDS011;46978;50.288;28.624;2023-04-08T01:27:36;30.00;;;18.81;;
60336;SDS011;46978;50.288;28.624;2023-04-08T01:28:39;29.20;;;18.31;;
60336;SDS011;46978;50.288;28.624;2023-04-08T01:29:41;34.55;;;20.30;;
60336;SDS011;46978;50.288;28.624;2023-04-08T01:30:45;37.73;;;21.82;;
60336;SDS011;46978;50.288;28.624;2023-04-08T01:31:49;33.46;;;20.68;;
60336;SDS011;46978;50.288;28.624;2023-04-08T01:32:52;34.25;;;20.14;;
60336;SDS011;46978;50.288;28.624;2023-04-08T01:33:56;37.44;;;22.18;;
60336;SDS011;46978;50.288;28.624;2023-04-08T01:35:01;35.43;;;19.96;;
60336;SDS011;46978;50.288;28.624;2023-04-08T01:36:03;32.47;;;19.84;;
60336;SDS011;46978;50.288;28.624;2023-04-08T01:37:06;32.09;;;18.55;;
60336;SDS011;46978;50.288;28.624;2023-04-08T01:38:09;29.43;;;18.11;;
60336;SDS011;46978;50.288;28.624;2023-04-08T01:39:15;26.13;;;16.40;;
60336;SDS011;46978;50.288;28.624;2023-04-08T01:40:18;29.98;;;17.83;;
60336;SDS011;46978;50.288;28.624;2023-04-08T01:41:20;32.27;;;19.03;;
60336;SDS011;46978;50.288;28.624;2023-04-08T01:42:22;33.11;;;19.23;;
60336;SDS011;46978;50.288;28.624;2023-04-08T01:43:25;28.32;;;16.72;;
60336;SDS011;46978;50.288;28.624;2023-04-08T01:44:29;35.03;;;19.98;;
60336;SDS011;46978;50.288;28.624;2023-04-08T01:45:31;31.01;;;19.37;;
60336;SDS011;46978;50.288;28.624;2023-04-08T01:46:33;31.38;;;19.50;;
60336;SDS011;46978;50.288;28.624;2023-04-08T01:47:37;32.52;;;20.18;;
60336;SDS011;46978;50.288;28.624;2023-04-08T01:48:40;29.79;;;19.12;;
60336;SDS011;46978;50.288;28.624;2023-04-08T01:49:43;34.78;;;20.86;;
60336;SDS011;46978;50.288;28.624;2023-04-08T01:50:45;33.08;;;19.81;;
60336;SDS011;46978;50.288;28.624;2023-04-08T01:51:49;29.59;;;19.17;;
60336;SDS011;46978;50.288;28.624;2023-04-08T01:52:52;34.08;;;20.68;;
60336;SDS011;46978;50.288;28.624;2023-04-08T01:53:56;35.17;;;22.46;;
60336;SDS011;46978;50.288;28.624;2023-04-08T01:54:58;36.19;;;22.23;;
60336;SDS011;46978;50.288;28.624;2023-04-08T01:56:08;39.93;;;26.11;;
60336;SDS011;46978;50.288;28.624;2023-04-08T01:57:13;36.88;;;22.87;;
60336;SDS011;46978;50.288;28.624;2023-04-08T01:58:17;35.70;;;22.59;;
60336;SDS011;46978;50.288;28.624;2023-04-08T01:59:21;36.79;;;23.62;;
60336;SDS011;46978;50.288;28.624;2023-04-08T02:00:29;36.63;;;21.67;;
60336;SDS011;46978;50.288;28.624;2023-04-08T02:01:31;31.84;;;21.07;;
60336;SDS011;46978;50.288;28.624;2023-04-08T02:02:35;29.19;;;18.31;;
60336;SDS011;46978;50.288;28.624;2023-04-08T02:03:39;30.99;;;19.66;;
60336;SDS011;46978;50.288;28.624;2023-04-08T02:04:43;30.19;;;19.53;;
60336;SDS011;46978;50.288;28.624;2023-04-08T02:05:44;30.22;;;18.00;;
60336;SDS011;46978;50.288;28.624;2023-04-08T02:06:46;26.00;;;15.85;;
60336;SDS011;46978;50.288;28.624;2023-04-08T02:07:48;27.59;;;16.15;;
60336;SDS011;46978;50.288;28.624;2023-04-08T02:08:50;24.68;;;15.74;;
60336;SDS011;46978;50.288;28.624;2023-04-08T02:09:52;22.69;;;15.46;;
60336;SDS011;46978;50.288;28.624;2023-04-08T02:10:54;25.95;;;16.13;;
60336;SDS011;46978;50.288;28.624;2023-04-08T02:11:55;23.84;;;14.46;;
60336;SDS011;46978;50.288;28.624;2023-04-08T02:12:57;24.84;;;15.96;;
60336;SDS011;46978;50.288;28.624;2023-04-08T02:13:58;26.69;;;16.94;;
60336;SDS011;46978;50.288;28.624;2023-04-08T02:15:00;27.97;;;18.42;;
60336;SDS011;46978;50.288;28.624;2023-04-08T02:16:03;26.41;;;16.73;;
60336;SDS011;46978;50.288;28.624;2023-04-08T02:17:11;28.02;;;18.07;;
60336;SDS011;46978;50.288;28.624;2023-04-08T02:18:16;27.12;;;17.78;;
60336;SDS011;46978;50.288;28.624;2023-04-08T02:19:28;22.41;;;14.96;;
60336;SDS011;46978;50.288;28.624;2023-04-08T02:21:48;19.47;;;13.21;;
60336;SDS011;46978;50.288;28.624;2023-04-08T02:23:02;27.40;;;17.01;;
60336;SDS011;46978;50.288;28.624;2023-04-08T02:24:22;26.22;;;16.30;;
60336;SDS011;46978;50.288;28.624;2023-04-08T02:25:26;19.09;;;12.64;;
60336;SDS011;46978;50.288;28.624;2023-04-08T02:26:32;21.71;;;12.61;;
60336;SDS011;46978;50.288;28.624;2023-04-08T02:27:35;17.61;;;11.81;;
60336;SDS011;46978;50.288;28.624;2023-04-08T02:28:39;19.71;;;12.65;;
60336;SDS011;46978;50.288;28.624;2023-04-08T02:29:43;20.44;;;12.95;;
60336;SDS011;46978;50.288;28.624;2023-04-08T02:30:51;19.39;;;12.49;;
60336;SDS011;46978;50.288;28.624;2023-04-08T02:31:51;19.31;;;12.07;;
60336;SDS011;46978;50.288;28.624;2023-04-08T02:32:54;20.19;;;12.53;;
60336;SDS011;46978;50.288;28.624;2023-04-08T02:33:58;17.92;;;12.07;;
60336;SDS011;46978;50.288;28.624;2023-04-08T02:35:01;19.11;;;12.33;;
60336;SDS011;46978;50.288;28.624;2023-04-08T02:36:04;20.69;;;12.53;;
60336;SDS011;46978;50.288;28.624;2023-04-08T02:37:07;19.41;;;12.05;;
60336;SDS011;46978;50.288;28.624;2023-04-08T02:38:10;17.58;;;11.78;;
60336;SDS011;46978;50.288;28.624;2023-04-08T02:39:13;16.41;;;11.44;;
60336;SDS011;46978;50.288;28.624;2023-04-08T02:40:25;17.14;;;11.79;;
60336;SDS011;46978;50.288;28.624;2023-04-08T02:41:32;16.05;;;11.14;;
60336;SDS011;46978;50.288;28.624;2023-04-08T02:42:35;17.18;;;11.07;;
60336;SDS011;46978;50.288;28.624;2023-04-08T02:43:37;19.31;;;11.76;;
60336;SDS011;46978;50.288;28.624;2023-04-08T02:44:38;18.69;;;11.34;;
60336;SDS011;46978;50.288;28.624;2023-04-08T02:45:40;20.04;;;12.37;;
60336;SDS011;46978;50.288;28.624;2023-04-08T02:46:43;21.39;;;12.79;;
60336;SDS011;46978;50.288;28.624;2023-04-08T02:47:45;18.24;;;12.05;;
60336;SDS011;46978;50.288;28.624;2023-04-08T02:48:47;19.59;;;12.21;;
60336;SDS011;46978;50.288;28.624;2023-04-08T02:49:49;19.63;;;12.49;;
60336;SDS011;46978;50.288;28.624;2023-04-08T02:50:51;20.53;;;12.79;;
60336;SDS011;46978;50.288;28.624;2023-04-08T02:51:52;19.06;;;12.39;;
60336;SDS011;46978;50.288;28.624;2023-04-08T02:52:54;20.61;;;13.26;;
60336;SDS011;46978;50.288;28.624;2023-04-08T02:53:56;20.57;;;13.32;;
60336;SDS011;46978;50.288;28.624;2023-04-08T02:54:57;20.41;;;13.13;;
60336;SDS011;46978;50.288;28.624;2023-04-08T02:55:59;20.47;;;12.69;;
60336;SDS011;46978;50.288;28.624;2023-04-08T02:57:01;19.08;;;12.93;;
60336;SDS011;46978;50.288;28.624;2023-04-08T02:58:03;21.54;;;13.93;;
60336;SDS011;46978;50.288;28.624;2023-04-08T02:59:04;19.89;;;13.59;;
60336;SDS011;46978;50.288;28.624;2023-04-08T03:00:08;20.67;;;13.59;;
60336;SDS011;46978;50.288;28.624;2023-04-08T03:01:11;21.95;;;14.06;;
60336;SDS011;46978;50.288;28.624;2023-04-08T03:02:12;22.55;;;14.69;;
60336;SDS011;46978;50.288;28.624;2023-04-08T03:03:14;23.63;;;14.91;;
60336;SDS011;46978;50.288;28.624;2023-04-08T03:04:16;32.84;;;17.46;;
60336;SDS011;46978;50.288;28.624;2023-04-08T03:05:19;29.24;;;17.23;;
60336;SDS011;46978;50.288;28.624;2023-04-08T03:06:23;31.79;;;17.68;;
60336;SDS011;46978;50.288;28.624;2023-04-08T03:07:24;35.69;;;19.77;;
60336;SDS011;46978;50.288;28.624;2023-04-08T03:08:26;29.04;;;17.73;;
60336;SDS011;46978;50.288;28.624;2023-04-08T03:09:28;35.50;;;20.07;;
60336;SDS011;46978;50.288;28.624;2023-04-08T03:10:30;42.67;;;23.11;;
60336;SDS011;46978;50.288;28.624;2023-04-08T03:11:31;42.11;;;21.72;;
60336;SDS011;46978;50.288;28.624;2023-04-08T03:12:33;44.99;;;22.64;;
60336;SDS011;46978;50.288;28.624;2023-04-08T03:13:35;32.28;;;19.66;;
60336;SDS011;46978;50.288;28.624;2023-04-08T03:14:39;35.47;;;20.47;;
60336;SDS011;46978;50.288;28.624;2023-04-08T03:15:40;33.37;;;18.89;;
60336;SDS011;46978;50.288;28.624;2023-04-08T03:16:43;29.48;;;18.13;;
60336;SDS011;46978;50.288;28.624;2023-04-08T03:17:44;32.60;;;18.79;;
60336;SDS011;46978;50.288;28.624;2023-04-08T03:18:46;31.34;;;18.76;;
60336;SDS011;46978;50.288;28.624;2023-04-08T03:19:49;38.31;;;19.79;;
60336;SDS011;46978;50.288;28.624;2023-04-08T03:20:51;39.37;;;19.98;;
60336;SDS011;46978;50.288;28.624;2023-04-08T03:21:53;32.59;;;18.96;;
60336;SDS011;46978;50.288;28.624;2023-04-08T03:22:54;33.31;;;18.42;;
60336;SDS011;46978;50.288;28.624;2023-04-08T03:23:58;31.17;;;18.43;;
60336;SDS011;46978;50.288;28.624;2023-04-08T03:24:59;37.54;;;19.36;;
60336;SDS011;46978;50.288;28.624;2023-04-08T03:26:01;31.48;;;18.47;;
60336;SDS011;46978;50.288;28.624;2023-04-08T03:27:03;33.78;;;18.81;;
60336;SDS011;46978;50.288;28.624;2023-04-08T03:28:05;33.80;;;18.29;;
60336;SDS011;46978;50.288;28.624;2023-04-08T03:30:28;34.86;;;19.50;;
60336;SDS011;46978;50.288;28.624;2023-04-08T03:31:30;38.49;;;19.17;;
60336;SDS011;46978;50.288;28.624;2023-04-08T03:32:32;30.84;;;18.13;;
60336;SDS011;46978;50.288;28.624;2023-04-08T03:33:34;31.15;;;18.24;;
60336;SDS011;46978;50.288;28.624;2023-04-08T03:34:36;30.89;;;16.87;;
60336;SDS011;46978;50.288;28.624;2023-04-08T03:35:37;27.64;;;16.39;;
60336;SDS011;46978;50.288;28.624;2023-04-08T03:36:39;27.39;;;15.99;;
60336;SDS011;46978;50.288;28.624;2023-04-08T03:37:41;25.34;;;14.66;;
60336;SDS011;46978;50.288;28.624;2023-04-08T03:38:43;22.85;;;14.73;;
60336;SDS011;46978;50.288;28.624;2023-04-08T03:39:44;21.82;;;13.35;;
60336;SDS011;46978;50.288;28.624;2023-04-08T03:40:46;24.00;;;15.09;;
60336;SDS011;46978;50.288;28.624;2023-04-08T03:41:48;21.06;;;14.04;;
60336;SDS011;46978;50.288;28.624;2023-04-08T03:42:50;23.61;;;14.35;;
60336;SDS011;46978;50.288;28.624;2023-04-08T03:43:51;21.44;;;14.32;;
60336;SDS011;46978;50.288;28.624;2023-04-08T03:44:53;22.28;;;13.77;;
60336;SDS011;46978;50.288;28.624;2023-04-08T03:45:56;22.24;;;14.09;;
60336;SDS011;46978;50.288;28.624;2023-04-08T03:46:57;21.02;;;13.59;;
60336;SDS011;46978;50.288;28.624;2023-04-08T03:48:00;20.29;;;13.34;;
60336;SDS011;46978;50.288;28.624;2023-04-08T03:49:04;19.04;;;12.01;;
60336;SDS011;46978;50.288;28.624;2023-04-08T03:50:06;18.15;;;12.11;;
60336;SDS011;46978;50.288;28.624;2023-04-08T03:51:08;18.77;;;12.33;;
60336;SDS011;46978;50.288;28.624;2023-04-08T03:52:10;18.82;;;11.99;;
60336;SDS011;46978;50.288;28.624;2023-04-08T03:53:11;18.13;;;11.79;;
60336;SDS011;46978;50.288;28.624;2023-04-08T03:54:13;19.36;;;13.06;;
60336;SDS011;46978;50.288;28.624;2023-04-08T03:55:15;17.78;;;11.44;;
60336;SDS011;46978;50.288;28.624;2023-04-08T03:56:17;18.68;;;11.91;;
60336;SDS011;46978;50.288;28.624;2023-04-08T03:57:18;18.78;;;11.65;;
60336;SDS011;46978;50.288;28.624;2023-04-08T03:58:20;17.18;;;11.32;;
60336;SDS011;46978;50.288;28.624;2023-04-08T03:59:22;19.22;;;12.24;;
60336;SDS011;46978;50.288;28.624;2023-04-08T04:00:24;20.28;;;13.25;;
60336;SDS011;46978;50.288;28.624;2023-04-08T04:01:25;19.49;;;12.83;;
60336;SDS011;46978;50.288;28.624;2023-04-08T04:02:27;22.20;;;14.70;;
60336;SDS011;46978;50.288;28.624;2023-04-08T04:03:29;22.09;;;14.20;;
60336;SDS011;46978;50.288;28.624;2023-04-08T04:04:30;25.24;;;15.76;;
60336;SDS011;46978;50.288;28.624;2023-04-08T04:05:32;26.06;;;14.89;;
60336;SDS011;46978;50.288;28.624;2023-04-08T04:06:34;24.69;;;14.94;;
60336;SDS011;46978;50.288;28.624;2023-04-08T04:07:36;29.25;;;17.38;;
60336;SDS011;46978;50.288;28.624;2023-04-08T04:08:37;26.26;;;15.47;;
60336;SDS011;46978;50.288;28.624;2023-04-08T04:09:39;26.85;;;16.23;;
60336;SDS011;46978;50.288;28.624;2023-04-08T04:10:41;24.71;;;16.11;;
60336;SDS011;46978;50.288;28.624;2023-04-08T04:11:42;30.21;;;17.74;;
60336;SDS011;46978;50.288;28.624;2023-04-08T04:12:44;28.63;;;17.86;;
60336;SDS011;46978;50.288;28.624;2023-04-08T04:13:45;27.91;;;16.21;;
60336;SDS011;46978;50.288;28.624;2023-04-08T04:14:50;28.21;;;16.96;;
60336;SDS011;46978;50.288;28.624;2023-04-08T04:15:52;23.84;;;15.69;;
60336;SDS011;46978;50.288;28.624;2023-04-08T04:16:53;25.07;;;16.42;;
60336;SDS011;46978;50.288;28.624;2023-04-08T04:17:55;24.03;;;16.18;;
60336;SDS011;46978;50.288;28.624;2023-04-08T04:18:57;24.13;;;16.29;;
60336;SDS011;46978;50.288;28.624;2023-04-08T04:19:58;20.53;;;13.71;;
60336;SDS011;46978;50.288;28.624;2023-04-08T04:21:03;22.16;;;14.70;;
60336;SDS011;46978;50.288;28.624;2023-04-08T04:22:07;24.37;;;15.58;;
60336;SDS011;46978;50.288;28.624;2023-04-08T04:23:08;23.03;;;15.17;;
60336;SDS011;46978;50.288;28.624;2023-04-08T04:24:13;23.35;;;15.11;;
60336;SDS011;46978;50.288;28.624;2023-04-08T04:25:14;29.00;;;16.33;;
60336;SDS011;46978;50.288;28.624;2023-04-08T04:26:16;30.50;;;19.01;;
60336;SDS011;46978;50.288;28.624;2023-04-08T04:27:18;31.01;;;19.06;;
60336;SDS011;46978;50.288;28.624;2023-04-08T04:28:19;29.56;;;21.00;;
60336;SDS011;46978;50.288;28.624;2023-04-08T04:29:21;31.96;;;18.91;;
60336;SDS011;46978;50.288;28.624;2023-04-08T04:30:24;23.49;;;15.78;;
60336;SDS011;46978;50.288;28.624;2023-04-08T04:31:26;20.47;;;13.91;;
60336;SDS011;46978;50.288;28.624;2023-04-08T04:32:28;21.86;;;14.52;;
60336;SDS011;46978;50.288;28.624;2023-04-08T04:33:30;20.62;;;14.24;;
60336;SDS011;46978;50.288;28.624;2023-04-08T04:34:32;20.59;;;14.49;;
60336;SDS011;46978;50.288;28.624;2023-04-08T04:35:33;20.50;;;13.88;;
60336;SDS011;46978;50.288;28.624;2023-04-08T04:36:35;21.89;;;13.81;;
60336;SDS011;46978;50.288;28.624;2023-04-08T04:37:37;19.19;;;13.64;;
60336;SDS011;46978;50.288;28.624;2023-04-08T04:38:39;19.29;;;13.26;;
60336;SDS011;46978;50.288;28.624;2023-04-08T04:39:41;18.59;;;12.49;;
60336;SDS011;46978;50.288;28.624;2023-04-08T04:42:06;18.41;;;12.94;;
60336;SDS011;46978;50.288;28.624;2023-04-08T04:43:07;19.98;;;13.36;;
60336;SDS011;46978;50.288;28.624;2023-04-08T04:44:09;18.35;;;12.79;;
60336;SDS011;46978;50.288;28.624;2023-04-08T04:45:11;19.05;;;12.36;;
60336;SDS011;46978;50.288;28.624;2023-04-08T04:46:13;20.09;;;12.95;;
60336;SDS011;46978;50.288;28.624;2023-04-08T04:47:15;17.25;;;12.01;;
60336;SDS011;46978;50.288;28.624;2023-04-08T04:48:16;18.38;;;12.37;;
60336;SDS011;46978;50.288;28.624;2023-04-08T04:49:18;18.79;;;12.45;;
60336;SDS011;46978;50.288;28.624;2023-04-08T04:50:20;18.21;;;12.26;;
60336;SDS011;46978;50.288;28.624;2023-04-08T04:51:21;19.34;;;12.89;;
60336;SDS011;46978;50.288;28.624;2023-04-08T04:52:23;20.72;;;12.53;;
60336;SDS011;46978;50.288;28.624;2023-04-08T04:53:25;20.27;;;13.06;;
60336;SDS011;46978;50.288;28.624;2023-04-08T04:54:27;20.17;;;13.65;;
60336;SDS011;46978;50.288;28.624;2023-04-08T04:55:28;24.69;;;13.19;;
60336;SDS011;46978;50.288;28.624;2023-04-08T04:56:30;21.19;;;13.56;;
60336;SDS011;46978;50.288;28.624;2023-04-08T04:57:34;21.11;;;12.84;;
60336;SDS011;46978;50.288;28.624;2023-04-08T04:58:36;21.01;;;13.42;;
60336;SDS011;46978;50.288;28.624;2023-04-08T04:59:38;18.84;;;13.18;;
60336;SDS011;46978;50.288;28.624;2023-04-08T05:00:39;19.00;;;12.44;;
60336;SDS011;46978;50.288;28.624;2023-04-08T05:01:41;20.59;;;13.31;;
60336;SDS011;46978;50.288;28.624;2023-04-08T05:02:43;21.23;;;12.96;;
60336;SDS011;46978;50.288;28.624;2023-04-08T05:03:44;19.94;;;13.07;;
60336;SDS011;46978;50.288;28.624;2023-04-08T05:04:46;19.62;;;13.00;;
60336;SDS011;46978;50.288;28.624;2023-04-08T05:05:51;19.76;;;12.50;;
60336;SDS011;46978;50.288;28.624;2023-04-08T05:06:53;18.94;;;12.58;;
60336;SDS011;46978;50.288;28.624;2023-04-08T05:07:55;20.80;;;12.78;;
60336;SDS011;46978;50.288;28.624;2023-04-08T05:08:57;20.14;;;12.41;;
60336;SDS011;46978;50.288;28.624;2023-04-08T05:09:58;21.52;;;13.02;;
60336;SDS011;46978;50.288;28.624;2023-04-08T05:11:00;22.19;;;13.40;;
60336;SDS011;46978;50.288;28.624;2023-04-08T05:12:02;19.21;;;12.99;;
60336;SDS011;46978;50.288;28.624;2023-04-08T05:13:05;20.87;;;12.48;;
60336;SDS011;46978;50.288;28.624;2023-04-08T05:14:06;22.41;;;13.47;;
60336;SDS011;46978;50.288;28.624;2023-04-08T05:15:08;21.99;;;13.01;;
60336;SDS011;46978;50.288;28.624;2023-04-08T05:16:11;20.67;;;13.04;;
60336;SDS011;46978;50.288;28.624;2023-04-08T05:17:13;22.39;;;13.82;;
60336;SDS011;46978;50.288;28.624;2023-04-08T05:18:14;23.01;;;14.20;;
60336;SDS011;46978;50.288;28.624;2023-04-08T05:19:21;21.29;;;13.45;;
60336;SDS011;46978;50.288;28.624;2023-04-08T05:20:23;21.09;;;13.66;;
60336;SDS011;46978;50.288;28.624;2023-04-08T05:21:30;21.81;;;13.58;;
60336;SDS011;46978;50.288;28.624;2023-04-08T05:22:32;19.97;;;12.76;;
60336;SDS011;46978;50.288;28.624;2023-04-08T05:23:34;20.79;;;12.84;;
60336;SDS011;46978;50.288;28.624;2023-04-08T05:24:36;21.37;;;13.40;;
60336;SDS011;46978;50.288;28.624;2023-04-08T05:25:37;20.88;;;13.35;;
60336;SDS011;46978;50.288;28.624;2023-04-08T05:26:39;18.21;;;12.14;;
60336;SDS011;46978;50.288;28.624;2023-04-08T05:27:41;20.92;;;13.19;;
60336;SDS011;46978;50.288;28.624;2023-04-08T05:28:42;18.39;;;12.25;;
60336;SDS011;46978;50.288;28.624;2023-04-08T05:29:44;19.19;;;12.64;;
60336;SDS011;46978;50.288;28.624;2023-04-08T05:30:49;19.12;;;12.83;;
60336;SDS011;46978;50.288;28.624;2023-04-08T05:31:52;21.26;;;13.81;;
60336;SDS011;46978;50.288;28.624;2023-04-08T05:32:54;21.08;;;14.50;;
60336;SDS011;46978;50.288;28.624;2023-04-08T05:35:17;23.13;;;15.59;;
60336;SDS011;46978;50.288;28.624;2023-04-08T05:36:19;22.37;;;15.11;;
60336;SDS011;46978;50.288;28.624;2023-04-08T05:37:21;25.85;;;15.67;;
60336;SDS011;46978;50.288;28.624;2023-04-08T05:38:22;24.36;;;15.67;;
60336;SDS011;46978;50.288;28.624;2023-04-08T05:39:24;30.38;;;20.03;;
60336;SDS011;46978;50.288;28.624;2023-04-08T05:40:26;32.29;;;19.71;;
60336;SDS011;46978;50.288;28.624;2023-04-08T05:41:28;19.35;;;13.13;;
60336;SDS011;46978;50.288;28.624;2023-04-08T05:42:30;28.21;;;17.83;;
60336;SDS011;46978;50.288;28.624;2023-04-08T05:43:32;25.13;;;16.26;;
60336;SDS011;46978;50.288;28.624;2023-04-08T05:44:34;28.11;;;17.07;;
60336;SDS011;46978;50.288;28.624;2023-04-08T05:45:36;25.94;;;16.01;;
60336;SDS011;46978;50.288;28.624;2023-04-08T05:46:38;23.29;;;15.89;;
60336;SDS011;46978;50.288;28.624;2023-04-08T05:47:40;19.73;;;12.77;;
60336;SDS011;46978;50.288;28.624;2023-04-08T05:48:42;23.29;;;13.65;;
60336;SDS011;46978;50.288;28.624;2023-04-08T05:49:44;18.69;;;11.55;;
60336;SDS011;46978;50.288;28.624;2023-04-08T05:50:46;22.52;;;13.81;;
60336;SDS011;46978;50.288;28.624;2023-04-08T05:51:47;20.74;;;12.91;;
60336;SDS011;46978;50.288;28.624;2023-04-08T05:52:49;22.63;;;14.15;;
60336;SDS011;46978;50.288;28.624;2023-04-08T05:53:51;21.86;;;15.18;;
60336;SDS011;46978;50.288;28.624;2023-04-08T05:54:52;21.09;;;14.28;;
60336;SDS011;46978;50.288;28.624;2023-04-08T05:55:54;20.34;;;14.22;;
60336;SDS011;46978;50.288;28.624;2023-04-08T05:56:56;19.71;;;13.65;;
60336;SDS011;46978;50.288;28.624;2023-04-08T05:57:59;20.54;;;13.53;;
60336;SDS011;46978;50.288;28.624;2023-04-08T05:59:01;17.35;;;12.24;;
60336;SDS011;46978;50.288;28.624;2023-04-08T06:00:04;23.69;;;14.23;;
60336;SDS011;46978;50.288;28.624;2023-04-08T06:01:09;20.62;;;12.71;;
60336;SDS011;46978;50.288;28.624;2023-04-08T06:02:11;15.98;;;10.79;;
60336;SDS011;46978;50.288;28.624;2023-04-08T06:03:13;16.08;;;10.80;;
60336;SDS011;46978;50.288;28.624;2023-04-08T06:04:16;16.86;;;11.46;;
60336;SDS011;46978;50.288;28.624;2023-04-08T06:05:18;17.03;;;11.00;;
60336;SDS011;46978;50.288;28.624;2023-04-08T06:06:20;17.06;;;10.75;;
60336;SDS011;46978;50.288;28.624;2023-04-08T06:07:22;18.75;;;10.49;;
60336;SDS011;46978;50.288;28.624;2023-04-08T06:08:24;18.32;;;12.14;;
60336;SDS011;46978;50.288;28.624;2023-04-08T06:09:26;14.78;;;10.44;;
60336;SDS011;46978;50.288;28.624;2023-04-08T06:10:27;17.50;;;11.15;;
60336;SDS011;46978;50.288;28.624;2023-04-08T06:11:29;18.51;;;11.69;;
60336;SDS011;46978;50.288;28.624;2023-04-08T06:12:33;17.29;;;11.81;;